Time;durP1;ratioP1;P1;durP2;ratioP2;P2;SDS_P1;SDS_P2;PMS_P1;PMS_P2;Temp;Humidity;BMP_temperature;BMP_pressure;BME280_temperature;BME280_humidity;BME280_pressure;Samples;Min_cycle;Max_cycle;Signal;HPM_P1;HPM_P2
2022/07/02 00:00:51;;;;;;;6.97;6.38;;;;;;;;;;5049833;28;20240;-52
2022/07/02 00:03:21;;;;;;;9.60;7.50;;;;;;;;;;5053376;28;20240;-56
2022/07/02 00:05:48;;;;;;;8.00;7.28;;;;;;;;;;5054033;28;20266;-51
2022/07/02 00:08:17;;;;;;;8.20;7.50;;;;;;;;;;5061254;28;20952;-53
2022/07/02 00:10:43;;;;;;;7.95;7.35;;;;;;;;;;5059355;28;20230;-52
2022/07/02 00:13:11;;;;;;;6.90;6.30;;;;;;;;;;5052942;28;20235;-51
2022/07/02 00:15:38;;;;;;;8.52;7.78;;;;;;;;;;5050086;28;20316;-51
2022/07/02 00:18:04;;;;;;;8.27;7.47;;;;;;;;;;5052961;28;20521;-52
2022/07/02 00:20:31;;;;;;;8.00;7.32;;;;;;;;;;5045490;28;20235;-52
2022/07/02 00:22:57;;;;;;;9.02;8.13;;;;;;;;;;5052426;28;20227;-52
2022/07/02 00:25:24;;;;;;;9.25;8.10;;;;;;;;;;5051478;28;20235;-51
2022/07/02 00:27:51;;;;;;;9.57;8.68;;;;;;;;;;5055562;28;20227;-52
2022/07/02 00:30:19;;;;;;;8.40;7.60;;;;;;;;;;5053631;28;20259;-52
2022/07/02 00:32:47;;;;;;;8.93;8.23;;;;;;;;;;5052437;28;20234;-51
2022/07/02 00:35:13;;;;;;;8.30;7.53;;;;;;;;;;5051216;28;20243;-52
2022/07/02 00:37:40;;;;;;;8.55;7.80;;;;;;;;;;5051082;28;20246;-52
2022/07/02 00:40:07;;;;;;;8.52;7.70;;;;;;;;;;5051711;28;20234;-52
2022/07/02 00:42:35;;;;;;;10.23;8.80;;;;;;;;;;5041943;28;20239;-52
2022/07/02 00:45:01;;;;;;;8.80;7.57;;;;;;;;;;5048209;28;20236;-53
2022/07/02 00:47:30;;;;;;;8.07;7.28;;;;;;;;;;5049612;28;20235;-51
2022/07/02 00:49:57;;;;;;;9.38;8.57;;;;;;;;;;5050522;28;20640;-53
2022/07/02 00:52:26;;;;;;;7.53;6.80;;;;;;;;;;5053397;28;20702;-52
2022/07/02 00:54:52;;;;;;;8.02;6.60;;;;;;;;;;5053486;28;20247;-52
2022/07/02 00:57:18;;;;;;;8.35;6.93;;;;;;;;;;5053437;28;20265;-52
2022/07/02 00:59:45;;;;;;;9.82;7.40;;;;;;;;;;5055953;28;20784;-52
2022/07/02 01:02:11;;;;;;;7.68;7.07;;;;;;;;;;5050661;28;20710;-52
2022/07/02 01:04:41;;;;;;;9.50;8.27;;;;;;;;;;5049908;28;20255;-52
2022/07/02 01:07:08;;;;;;;8.18;7.45;;;;;;;;;;5052355;28;20623;-51
2022/07/02 01:12:22;;;;;;;9.18;8.23;;;;;;;;;;5054958;28;20361;-53
2022/07/02 01:14:48;;;;;;;11.18;7.55;;;;;;;;;;5058249;28;20235;-53
2022/07/02 01:17:15;;;;;;;8.32;7.53;;;;;;;;;;5054273;28;20231;-52
2022/07/02 01:19:42;;;;;;;8.02;7.32;;;;;;;;;;5046852;28;20227;-54
2022/07/02 01:22:14;;;;;;;7.40;6.80;;;;;;;;;;5048047;28;20239;-53
2022/07/02 01:24:41;;;;;;;8.30;7.50;;;;;;;;;;5057541;28;20237;-51
2022/07/02 01:27:08;;;;;;;7.57;6.95;;;;;;;;;;5051916;28;21866;-53
2022/07/02 01:29:34;;;;;;;7.50;6.90;;;;;;;;;;5060560;28;20681;-52
2022/07/02 01:32:01;;;;;;;9.60;8.80;;;;;;;;;;5050419;28;20223;-52
2022/07/02 01:34:27;;;;;;;8.73;8.02;;;;;;;;;;5052463;28;20238;-53
2022/07/02 01:36:54;;;;;;;8.32;7.60;;;;;;;;;;5049778;28;20231;-53
2022/07/02 01:39:25;;;;;;;8.38;7.65;;;;;;;;;;5054761;28;20228;-53
2022/07/02 01:41:51;;;;;;;9.20;8.35;;;;;;;;;;5055963;28;20234;-52
2022/07/02 01:44:17;;;;;;;8.60;7.90;;;;;;;;;;5047206;28;20867;-52
2022/07/02 01:46:44;;;;;;;9.23;8.35;;;;;;;;;;5053260;28;20754;-52
2022/07/02 01:49:11;;;;;;;8.32;7.63;;;;;;;;;;5049742;28;20232;-52
2022/07/02 01:51:37;;;;;;;8.15;7.45;;;;;;;;;;5056510;28;20240;-51
2022/07/02 01:54:04;;;;;;;8.52;7.75;;;;;;;;;;5061401;28;20239;-51
2022/07/02 01:56:32;;;;;;;8.23;7.55;;;;;;;;;;5054598;28;20230;-52
2022/07/02 01:58:59;;;;;;;9.10;8.30;;;;;;;;;;5058254;28;20228;-51
2022/07/02 02:01:25;;;;;;;8.30;7.60;;;;;;;;;;5056172;28;20223;-52
2022/07/02 02:03:51;;;;;;;8.30;7.50;;;;;;;;;;5047862;28;20231;-51
2022/07/02 02:06:18;;;;;;;8.45;7.75;;;;;;;;;;5051391;28;20230;-52
2022/07/02 02:08:44;;;;;;;10.10;9.20;;;;;;;;;;5053370;28;20237;-53
2022/07/02 02:11:10;;;;;;;10.77;8.68;;;;;;;;;;5062108;28;20231;-53
2022/07/02 02:13:39;;;;;;;9.05;8.25;;;;;;;;;;5050956;28;20270;-51
2022/07/02 02:16:05;;;;;;;8.95;8.13;;;;;;;;;;5059525;28;20239;-52
2022/07/02 02:18:32;;;;;;;9.35;8.55;;;;;;;;;;5055701;28;20224;-53
2022/07/02 02:20:58;;;;;;;8.38;7.57;;;;;;;;;;5063464;28;20227;-52
2022/07/02 02:23:24;;;;;;;8.23;7.53;;;;;;;;;;5059459;28;20733;-52
2022/07/02 02:25:51;;;;;;;9.98;8.98;;;;;;;;;;5063293;28;20318;-52
2022/07/02 02:28:17;;;;;;;8.60;7.80;;;;;;;;;;5056817;28;20231;-51
2022/07/02 02:30:45;;;;;;;8.52;7.72;;;;;;;;;;5065562;28;20231;-53
2022/07/02 02:33:11;;;;;;;11.43;8.55;;;;;;;;;;5060806;28;20231;-52
2022/07/02 02:35:38;;;;;;;9.57;8.65;;;;;;;;;;5062930;28;20246;-52
2022/07/02 02:38:04;;;;;;;8.45;7.68;;;;;;;;;;5056374;28;20235;-51
2022/07/02 02:40:30;;;;;;;8.80;7.95;;;;;;;;;;5062334;28;20820;-51
2022/07/02 02:42:56;;;;;;;10.02;9.23;;;;;;;;;;5049223;28;20231;-51
2022/07/02 02:45:23;;;;;;;9.75;9.00;;;;;;;;;;5061226;28;20231;-52
2022/07/02 02:47:51;;;;;;;9.18;8.38;;;;;;;;;;5059681;28;20600;-51
2022/07/02 02:50:17;;;;;;;9.05;8.25;;;;;;;;;;5057233;28;20771;-52
2022/07/02 02:52:43;;;;;;;9.75;8.75;;;;;;;;;;5052443;28;20235;-52
2022/07/02 02:55:10;;;;;;;13.35;9.40;;;;;;;;;;5058335;28;20231;-52
2022/07/02 02:57:36;;;;;;;9.25;8.48;;;;;;;;;;5056411;28;20227;-54
2022/07/02 03:00:03;;;;;;;9.77;8.88;;;;;;;;;;5064379;28;20227;-52
2022/07/02 03:02:29;;;;;;;9.25;8.48;;;;;;;;;;5058541;28;20222;-52
2022/07/02 03:04:57;;;;;;;9.60;8.80;;;;;;;;;;5059965;28;20238;-52
2022/07/02 03:07:23;;;;;;;10.68;9.75;;;;;;;;;;5057542;28;20231;-53
2022/07/02 03:09:49;;;;;;;11.27;10.27;;;;;;;;;;5059814;28;20784;-51
2022/07/02 03:12:16;;;;;;;9.50;8.65;;;;;;;;;;5057381;28;20231;-51
2022/07/02 03:14:42;;;;;;;9.13;8.35;;;;;;;;;;5064698;28;20239;-51
2022/07/02 03:17:08;;;;;;;10.30;9.40;;;;;;;;;;5054033;28;20237;-53
2022/07/02 03:19:35;;;;;;;9.35;8.45;;;;;;;;;;5048560;28;20235;-52
2022/07/02 03:22:02;;;;;;;9.65;8.77;;;;;;;;;;5062082;28;20238;-53
2022/07/02 03:24:29;;;;;;;11.88;10.70;;;;;;;;;;5057216;28;20239;-52
2022/07/02 03:26:55;;;;;;;11.00;10.07;;;;;;;;;;5057534;28;20235;-52
2022/07/02 03:29:21;;;;;;;10.95;10.05;;;;;;;;;;5051850;28;20235;-52
2022/07/02 03:31:48;;;;;;;10.73;9.70;;;;;;;;;;5055994;28;20231;-55
2022/07/02 03:34:14;;;;;;;10.95;9.82;;;;;;;;;;5059952;28;20403;-52
2022/07/02 03:36:40;;;;;;;11.57;10.57;;;;;;;;;;5053034;28;20710;-51
2022/07/02 03:39:08;;;;;;;10.85;9.93;;;;;;;;;;5050780;28;20238;-52
2022/07/02 03:41:34;;;;;;;11.13;10.13;;;;;;;;;;5055993;28;20239;-52
2022/07/02 03:44:01;;;;;;;11.85;10.63;;;;;;;;;;5054732;28;20231;-53
2022/07/02 03:46:27;;;;;;;10.85;9.75;;;;;;;;;;5052595;28;20602;-53
2022/07/02 03:48:53;;;;;;;10.63;9.73;;;;;;;;;;5058661;28;20231;-51
2022/07/02 03:51:21;;;;;;;10.80;9.80;;;;;;;;;;5059012;28;20314;-52
2022/07/02 03:53:47;;;;;;;11.27;10.38;;;;;;;;;;5053562;28;20239;-50
2022/07/02 03:56:16;;;;;;;12.40;11.20;;;;;;;;;;5050081;28;20312;-51
2022/07/02 03:58:42;;;;;;;11.50;10.40;;;;;;;;;;5057727;28;20701;-51
2022/07/02 04:01:08;;;;;;;12.25;10.88;;;;;;;;;;5062726;28;20625;-52
2022/07/02 04:03:35;;;;;;;10.55;9.55;;;;;;;;;;5055374;28;20896;-53
2022/07/02 04:06:02;;;;;;;11.63;10.60;;;;;;;;;;5052004;28;20228;-53
2022/07/02 04:08:28;;;;;;;10.73;9.73;;;;;;;;;;5061821;28;20235;-51
2022/07/02 04:10:54;;;;;;;10.48;9.68;;;;;;;;;;5058876;28;20231;-52
2022/07/02 04:13:22;;;;;;;10.15;9.35;;;;;;;;;;5059697;28;20242;-53
2022/07/02 04:15:48;;;;;;;9.75;8.90;;;;;;;;;;5057179;28;20240;-52
2022/07/02 04:18:15;;;;;;;8.80;8.02;;;;;;;;;;5053483;28;20231;-52
2022/07/02 04:20:41;;;;;;;10.02;9.07;;;;;;;;;;5064232;28;20228;-54
2022/07/02 04:23:07;;;;;;;9.57;8.68;;;;;;;;;;5058254;28;20605;-52
2022/07/02 04:25:34;;;;;;;9.65;8.80;;;;;;;;;;5048558;28;20262;-54
2022/07/02 04:28:00;;;;;;;11.38;10.27;;;;;;;;;;5069508;28;20232;-51
2022/07/02 04:30:28;;;;;;;10.63;9.73;;;;;;;;;;5056398;28;20231;-51
2022/07/02 04:32:54;;;;;;;11.05;9.63;;;;;;;;;;5055193;28;20893;-52
2022/07/02 04:35:21;;;;;;;11.18;10.10;;;;;;;;;;5055421;28;20239;-53
2022/07/02 04:37:47;;;;;;;9.98;9.10;;;;;;;;;;5060268;28;20239;-52
2022/07/02 04:40:14;;;;;;;10.50;9.57;;;;;;;;;;5057677;28;20231;-52
2022/07/02 04:42:40;;;;;;;13.25;11.30;;;;;;;;;;5055452;28;20259;-52
2022/07/02 04:45:07;;;;;;;10.38;9.38;;;;;;;;;;5055608;28;20646;-54
2022/07/02 04:47:34;;;;;;;10.48;9.48;;;;;;;;;;5048866;28;20231;-53
2022/07/02 04:50:01;;;;;;;10.95;9.95;;;;;;;;;;5049729;28;20701;-53
2022/07/02 04:52:27;;;;;;;10.45;9.27;;;;;;;;;;5057651;28;20230;-52
2022/07/02 04:54:53;;;;;;;10.45;9.55;;;;;;;;;;5051185;28;20227;-53
2022/07/02 04:57:20;;;;;;;9.55;8.75;;;;;;;;;;5057584;28;20234;-52
2022/07/02 04:59:46;;;;;;;8.77;8.05;;;;;;;;;;5061416;28;20713;-52
2022/07/02 05:02:12;;;;;;;9.35;8.55;;;;;;;;;;5057306;28;20238;-53
2022/07/02 05:04:40;;;;;;;10.10;9.25;;;;;;;;;;5053903;28;20657;-51
2022/07/02 05:07:07;;;;;;;9.02;8.23;;;;;;;;;;5057031;28;20306;-51
2022/07/02 05:09:33;;;;;;;9.50;8.60;;;;;;;;;;5053871;28;20230;-51
2022/07/02 05:12:00;;;;;;;9.38;8.57;;;;;;;;;;5062338;28;20235;-52
2022/07/02 05:14:27;;;;;;;8.63;7.88;;;;;;;;;;5051442;28;20250;-51
2022/07/02 05:16:53;;;;;;;9.38;8.50;;;;;;;;;;5054615;28;20240;-53
2022/07/02 05:19:19;;;;;;;8.63;7.85;;;;;;;;;;5045203;28;20774;-55
2022/07/02 05:21:47;;;;;;;10.10;8.57;;;;;;;;;;5046840;28;20235;-54
2022/07/02 05:24:13;;;;;;;9.75;8.93;;;;;;;;;;5057897;28;20244;-52
2022/07/02 05:26:40;;;;;;;11.45;8.88;;;;;;;;;;5059531;28;20258;-53
2022/07/02 05:29:06;;;;;;;10.38;9.27;;;;;;;;;;5056823;28;20235;-52
2022/07/02 05:31:33;;;;;;;8.77;7.85;;;;;;;;;;5053025;28;20223;-52
2022/07/02 05:33:59;;;;;;;7.80;7.13;;;;;;;;;;5055627;28;20238;-54
2022/07/02 05:36:25;;;;;;;8.52;7.60;;;;;;;;;;5053004;28;20317;-53
2022/07/02 05:38:53;;;;;;;9.38;8.48;;;;;;;;;;5057135;28;20684;-52
2022/07/02 05:41:19;;;;;;;8.73;7.93;;;;;;;;;;5052393;28;20228;-53
2022/07/02 05:43:46;;;;;;;9.98;9.02;;;;;;;;;;5058069;28;20247;-53
2022/07/02 05:46:12;;;;;;;7.60;7.00;;;;;;;;;;5058040;28;20235;-51
2022/07/02 05:48:38;;;;;;;7.57;6.75;;;;;;;;;;5060870;28;20771;-51
2022/07/02 05:51:05;;;;;;;7.30;6.65;;;;;;;;;;5053813;28;20227;-53
2022/07/02 05:53:31;;;;;;;7.43;6.72;;;;;;;;;;5065583;28;20227;-52
2022/07/02 05:55:59;;;;;;;8.52;6.93;;;;;;;;;;5060520;28;20265;-53
2022/07/02 05:58:25;;;;;;;7.95;7.35;;;;;;;;;;5065092;28;20230;-54
2022/07/02 06:00:51;;;;;;;7.53;6.82;;;;;;;;;;5053134;28;20240;-53
2022/07/02 06:03:18;;;;;;;7.63;7.03;;;;;;;;;;5058902;28;20246;-52
2022/07/02 06:08:30;;;;;;;6.72;6.13;;;;;;;;;;5059027;28;20227;-53
2022/07/02 06:10:56;;;;;;;6.82;6.05;;;;;;;;;;5057621;28;20701;-52
2022/07/02 06:13:24;;;;;;;6.22;5.72;;;;;;;;;;5058828;28;20239;-53
2022/07/02 06:15:50;;;;;;;6.38;5.78;;;;;;;;;;5057062;28;20235;-55
2022/07/02 06:18:17;;;;;;;6.78;5.95;;;;;;;;;;5064834;28;20241;-52
2022/07/02 06:20:43;;;;;;;7.22;5.90;;;;;;;;;;5056665;28;20238;-51
2022/07/02 06:23:09;;;;;;;7.88;5.82;;;;;;;;;;5065884;28;20690;-52
2022/07/02 06:25:36;;;;;;;5.65;5.05;;;;;;;;;;5066719;28;20238;-54
2022/07/02 06:28:02;;;;;;;6.00;5.45;;;;;;;;;;5061643;28;20250;-52
2022/07/02 06:30:30;;;;;;;5.63;5.22;;;;;;;;;;5063034;28;20227;-53
2022/07/02 06:32:56;;;;;;;5.15;4.75;;;;;;;;;;5065276;28;20246;-52
2022/07/02 06:35:22;;;;;;;13.25;11.95;;;;;;;;;;5066331;28;20219;-53
2022/07/02 06:37:49;;;;;;;9.32;8.45;;;;;;;;;;5055450;28;20375;-51
2022/07/02 06:40:15;;;;;;;6.53;5.97;;;;;;;;;;5050731;28;20239;-53
2022/07/02 06:42:42;;;;;;;7.10;5.90;;;;;;;;;;5061972;28;20234;-52
2022/07/02 06:45:08;;;;;;;7.22;6.38;;;;;;;;;;5057956;28;20236;-52
2022/07/02 06:47:39;;;;;;;6.93;6.25;;;;;;;;;;5056821;28;20242;-53
2022/07/02 06:50:06;;;;;;;5.20;4.78;;;;;;;;;;5060867;28;21327;-53
2022/07/02 06:52:32;;;;;;;6.03;5.53;;;;;;;;;;5065028;28;20230;-51
2022/07/02 06:54:59;;;;;;;5.53;4.68;;;;;;;;;;5057190;28;20238;-52
2022/07/02 06:57:25;;;;;;;5.57;5.18;;;;;;;;;;5055951;28;20424;-53
2022/07/02 06:59:52;;;;;;;6.57;4.82;;;;;;;;;;5061419;28;20312;-53
2022/07/02 07:02:18;;;;;;;9.38;8.48;;;;;;;;;;5053325;28;20240;-52
2022/07/02 07:04:46;;;;;;;6.35;5.50;;;;;;;;;;5055713;28;20235;-53
2022/07/02 07:07:13;;;;;;;6.93;4.90;;;;;;;;;;5055296;28;20234;-52
2022/07/02 07:09:39;;;;;;;5.32;4.82;;;;;;;;;;5055283;28;20235;-53
2022/07/02 07:12:06;;;;;;;5.75;4.70;;;;;;;;;;5060424;28;20608;-53
2022/07/02 07:14:33;;;;;;;5.70;3.97;;;;;;;;;;5066550;28;20234;-52
2022/07/02 07:16:59;;;;;;;4.70;4.28;;;;;;;;;;5064368;28;20238;-53
2022/07/02 07:19:26;;;;;;;4.40;4.10;;;;;;;;;;5055164;28;20242;-51
2022/07/02 07:21:53;;;;;;;3.40;3.15;;;;;;;;;;5056567;28;20246;-53
2022/07/02 07:24:20;;;;;;;2.90;2.70;;;;;;;;;;5055713;28;20734;-52
2022/07/02 07:26:46;;;;;;;5.03;3.95;;;;;;;;;;5052651;28;20603;-53
2022/07/02 07:29:13;;;;;;;3.80;3.50;;;;;;;;;;5057563;28;20227;-53
2022/07/02 07:31:39;;;;;;;7.35;5.65;;;;;;;;;;5053667;28;20318;-52
2022/07/02 07:34:06;;;;;;;6.15;3.33;;;;;;;;;;5051821;28;20609;-52
2022/07/02 07:36:33;;;;;;;3.30;3.10;;;;;;;;;;5056061;28;20243;-52
2022/07/02 07:39:02;;;;;;;3.08;2.40;;;;;;;;;;5055569;28;20727;-52
2022/07/02 07:41:28;;;;;;;2.83;2.63;;;;;;;;;;5055845;28;20223;-52
2022/07/02 07:43:55;;;;;;;4.70;2.95;;;;;;;;;;5046282;28;20342;-53
2022/07/02 07:46:21;;;;;;;2.75;2.50;;;;;;;;;;5062514;28;20231;-52
2022/07/02 07:48:48;;;;;;;2.67;2.25;;;;;;;;;;5052361;28;20226;-51
2022/07/02 07:51:14;;;;;;;4.95;2.63;;;;;;;;;;5054940;28;20231;-52
2022/07/02 07:53:43;;;;;;;2.92;2.30;;;;;;;;;;5058898;28;20255;-51
2022/07/02 07:56:10;;;;;;;2.40;2.20;;;;;;;;;;5053390;28;20254;-52
2022/07/02 07:58:37;;;;;;;3.80;3.15;;;;;;;;;;5058226;28;20258;-53
2022/07/02 08:01:03;;;;;;;4.10;2.67;;;;;;;;;;5049435;28;20312;-52
2022/07/02 08:03:30;;;;;;;3.92;2.10;;;;;;;;;;5055352;28;20238;-51
2022/07/02 08:05:58;;;;;;;5.43;2.88;;;;;;;;;;5057120;28;20338;-52
2022/07/02 08:08:24;;;;;;;2.35;2.15;;;;;;;;;;5049139;28;20581;-52
2022/07/02 08:10:51;;;;;;;1.38;1.27;;;;;;;;;;5056604;28;20278;-53
2022/07/02 08:13:18;;;;;;;1.40;1.30;;;;;;;;;;5054753;28;20240;-53
2022/07/02 08:15:45;;;;;;;1.35;1.10;;;;;;;;;;5055130;28;20243;-52
2022/07/02 08:18:11;;;;;;;1.95;1.15;;;;;;;;;;5055474;28;20250;-53
2022/07/02 08:20:37;;;;;;;2.58;1.30;;;;;;;;;;5051683;28;20237;-51
2022/07/02 08:23:04;;;;;;;1.38;0.90;;;;;;;;;;5056674;28;20250;-53
2022/07/02 08:25:31;;;;;;;1.65;1.30;;;;;;;;;;5055052;28;20237;-51
2022/07/02 08:27:57;;;;;;;2.60;1.40;;;;;;;;;;5058078;28;20848;-52
2022/07/02 08:30:25;;;;;;;1.73;1.63;;;;;;;;;;5054392;28;20235;-52
2022/07/02 08:32:51;;;;;;;2.33;1.30;;;;;;;;;;5059041;28;20258;-52
2022/07/02 08:35:18;;;;;;;3.42;1.48;;;;;;;;;;5053757;28;20920;-53
2022/07/02 08:37:44;;;;;;;2.25;1.75;;;;;;;;;;5059254;28;20247;-51
2022/07/02 08:40:11;;;;;;;1.70;1.27;;;;;;;;;;5051398;28;20239;-51
2022/07/02 08:42:40;;;;;;;1.48;1.30;;;;;;;;;;5054092;28;20240;-52
2022/07/02 08:45:08;;;;;;;2.08;1.38;;;;;;;;;;5064379;28;20234;-51
2022/07/02 08:47:36;;;;;;;2.25;1.67;;;;;;;;;;5062319;28;20238;-53
2022/07/02 08:50:02;;;;;;;1.98;1.30;;;;;;;;;;5057104;28;20242;-52
2022/07/02 08:52:29;;;;;;;1.67;1.50;;;;;;;;;;5057225;28;20230;-52
2022/07/02 08:54:56;;;;;;;2.05;1.80;;;;;;;;;;5061978;28;20239;-53
2022/07/02 08:57:23;;;;;;;1.88;1.60;;;;;;;;;;5055612;28;20231;-52
2022/07/02 08:59:50;;;;;;;2.65;1.10;;;;;;;;;;5058589;28;20241;-52
2022/07/02 09:02:18;;;;;;;4.10;2.25;;;;;;;;;;5059639;28;20238;-53
2022/07/02 09:04:47;;;;;;;1.65;1.55;;;;;;;;;;5064716;28;20235;-52
2022/07/02 09:07:14;;;;;;;4.53;1.50;;;;;;;;;;5049261;28;20232;-51
2022/07/02 09:09:41;;;;;;;2.95;1.52;;;;;;;;;;5053077;28;20227;-52
2022/07/02 09:12:09;;;;;;;3.30;1.80;;;;;;;;;;5050894;28;20227;-53
2022/07/02 09:14:35;;;;;;;2.65;1.38;;;;;;;;;;5062830;28;20246;-53
2022/07/02 09:17:02;;;;;;;1.77;1.38;;;;;;;;;;5051810;28;20241;-52
2022/07/02 09:19:28;;;;;;;1.45;1.35;;;;;;;;;;5047783;28;20231;-52
2022/07/02 09:21:56;;;;;;;2.25;1.73;;;;;;;;;;5062122;28;20934;-51
2022/07/02 09:24:29;;;;;;;2.42;1.92;;;;;;;;;;5060806;28;20476;-52
2022/07/02 09:26:59;;;;;;;3.13;1.67;;;;;;;;;;5056756;28;20803;-51
2022/07/02 09:29:26;;;;;;;3.10;1.90;;;;;;;;;;5059355;28;20231;-55
2022/07/02 09:31:52;;;;;;;2.58;1.42;;;;;;;;;;5049504;28;20234;-51
2022/07/02 09:34:25;;;;;;;1.73;1.63;;;;;;;;;;5054986;28;20257;-53
2022/07/02 09:36:51;;;;;;;3.63;1.75;;;;;;;;;;5056404;28;20742;-52
2022/07/02 09:39:28;;;;;;;2.35;1.88;;;;;;;;;;5055073;28;20235;-52
2022/07/02 09:41:54;;;;;;;2.25;1.88;;;;;;;;;;5049272;28;20315;-52
2022/07/02 09:44:21;;;;;;;2.15;1.23;;;;;;;;;;5057601;28;20319;-52
2022/07/02 09:46:47;;;;;;;3.08;1.65;;;;;;;;;;5056121;28;20265;-52
2022/07/02 09:49:15;;;;;;;3.22;1.50;;;;;;;;;;5053863;28;20238;-53
2022/07/02 09:51:48;;;;;;;1.88;1.70;;;;;;;;;;5064434;28;20245;-51
2022/07/02 09:54:18;;;;;;;2.10;1.50;;;;;;;;;;5047320;28;20259;-52
2022/07/02 09:56:51;;;;;;;1.48;1.38;;;;;;;;;;5054771;28;20243;-52
2022/07/02 09:59:18;;;;;;;1.80;1.25;;;;;;;;;;5052911;28;20235;-52
2022/07/02 10:01:44;;;;;;;1.70;1.60;;;;;;;;;;5048328;28;20236;-52
2022/07/02 10:04:11;;;;;;;4.30;1.40;;;;;;;;;;5056106;28;20235;-54
2022/07/02 10:06:38;;;;;;;1.67;1.40;;;;;;;;;;5066738;28;20250;-52
2022/07/02 10:09:05;;;;;;;2.35;1.20;;;;;;;;;;5057691;28;20231;-52
2022/07/02 10:11:31;;;;;;;2.20;1.20;;;;;;;;;;5061745;28;20689;-52
2022/07/02 10:13:59;;;;;;;1.52;1.17;;;;;;;;;;5061134;28;20235;-51
2022/07/02 10:16:26;;;;;;;0.77;0.77;;;;;;;;;;5051738;28;20228;-52
2022/07/02 10:18:53;;;;;;;2.92;1.50;;;;;;;;;;5045409;28;20286;-52
2022/07/02 10:21:19;;;;;;;1.55;1.20;;;;;;;;;;5054986;28;20242;-53
2022/07/02 10:23:46;;;;;;;1.65;1.38;;;;;;;;;;5057841;28;20226;-51
2022/07/02 10:26:14;;;;;;;2.47;1.40;;;;;;;;;;5054020;28;20235;-51
2022/07/02 10:28:40;;;;;;;2.78;0.98;;;;;;;;;;5058946;28;20239;-51
2022/07/02 10:31:10;;;;;;;1.83;1.00;;;;;;;;;;5051575;28;20234;-51
2022/07/02 10:33:39;;;;;;;1.30;1.10;;;;;;;;;;5050723;28;20242;-52
2022/07/02 10:36:08;;;;;;;1.90;0.90;;;;;;;;;;5056508;28;20624;-51
2022/07/02 10:38:37;;;;;;;2.65;0.93;;;;;;;;;;5056365;28;20583;-52
2022/07/02 10:41:03;;;;;;;3.20;1.30;;;;;;;;;;5062611;28;20238;-52
2022/07/02 10:43:32;;;;;;;1.35;0.98;;;;;;;;;;5055504;28;20236;-52
2022/07/02 10:46:03;;;;;;;1.20;1.20;;;;;;;;;;5059966;28;20293;-52
2022/07/02 10:48:32;;;;;;;1.60;0.90;;;;;;;;;;5058421;28;20284;-52
2022/07/02 10:50:59;;;;;;;3.05;1.17;;;;;;;;;;5064402;28;20300;-53
2022/07/02 10:53:27;;;;;;;1.55;0.95;;;;;;;;;;5061468;28;20234;-52
2022/07/02 10:55:57;;;;;;;2.42;1.10;;;;;;;;;;5070742;28;20230;-53
2022/07/02 10:58:24;;;;;;;1.40;1.27;;;;;;;;;;5055513;28;20238;-52
2022/07/02 11:00:51;;;;;;;12.48;11.23;;;;;;;;;;5058681;28;20239;-53
2022/07/02 11:03:18;;;;;;;3.20;1.40;;;;;;;;;;5068738;28;20694;-52
2022/07/02 11:05:59;;;;;;;2.50;1.00;;;;;;;;;;5075842;28;20238;-52
2022/07/02 11:08:44;;;;;;;1.27;1.05;;;;;;;;;;5064940;28;20223;-52
2022/07/02 11:11:11;;;;;;;1.33;1.00;;;;;;;;;;5060268;28;20713;-57
2022/07/02 11:13:41;;;;;;;2.05;1.33;;;;;;;;;;5066788;28;20325;-53
2022/07/02 11:16:17;;;;;;;1.73;1.23;;;;;;;;;;5076100;28;20226;-51
2022/07/02 11:18:45;;;;;;;1.85;1.00;;;;;;;;;;5072707;28;20243;-52
2022/07/02 11:21:13;;;;;;;1.67;0.95;;;;;;;;;;5062842;28;20250;-52
2022/07/02 11:23:40;;;;;;;1.02;0.93;;;;;;;;;;5059199;28;20228;-52
2022/07/02 11:26:07;;;;;;;0.60;0.60;;;;;;;;;;5064410;28;20238;-52
2022/07/02 11:28:33;;;;;;;1.92;0.80;;;;;;;;;;5062693;28;20304;-52
2022/07/02 11:31:00;;;;;;;2.55;1.17;;;;;;;;;;5065145;28;20231;-51
2022/07/02 11:33:27;;;;;;;1.83;1.30;;;;;;;;;;5060133;28;20674;-52
2022/07/02 11:35:53;;;;;;;2.08;0.93;;;;;;;;;;5080766;28;20238;-52
2022/07/02 11:38:21;;;;;;;3.05;0.90;;;;;;;;;;5055810;28;20266;-53
2022/07/02 11:40:48;;;;;;;1.63;0.88;;;;;;;;;;5058752;28;20230;-53
2022/07/02 11:43:14;;;;;;;2.22;1.27;;;;;;;;;;5058710;28;20241;-52
2022/07/02 11:45:44;;;;;;;0.95;0.68;;;;;;;;;;5058683;28;20797;-51
2022/07/02 11:48:18;;;;;;;2.15;1.25;;;;;;;;;;5053196;28;20228;-51
2022/07/02 11:50:44;;;;;;;1.05;0.88;;;;;;;;;;5056806;28;20234;-52
2022/07/02 11:53:11;;;;;;;0.93;0.82;;;;;;;;;;5062633;28;20249;-52
2022/07/02 11:55:38;;;;;;;1.35;1.00;;;;;;;;;;5062539;28;20235;-52
2022/07/02 11:58:05;;;;;;;1.15;1.05;;;;;;;;;;5060628;28;20235;-51
2022/07/02 12:00:31;;;;;;;1.67;1.20;;;;;;;;;;5060357;28;20227;-51
2022/07/02 12:02:58;;;;;;;2.75;1.65;;;;;;;;;;5056078;28;20227;-54
2022/07/02 12:05:24;;;;;;;0.80;0.80;;;;;;;;;;5050346;28;20304;-53
2022/07/02 12:07:51;;;;;;;1.17;1.08;;;;;;;;;;5052921;28;20231;-52
2022/07/02 12:10:17;;;;;;;1.05;0.93;;;;;;;;;;5055338;28;20239;-52
2022/07/02 12:12:45;;;;;;;0.98;0.95;;;;;;;;;;5059462;28;20231;-52
2022/07/02 12:15:12;;;;;;;1.45;1.23;;;;;;;;;;5055311;28;20238;-52
2022/07/02 12:17:46;;;;;;;0.90;0.90;;;;;;;;;;5051905;28;20231;-51
2022/07/02 12:20:13;;;;;;;2.95;1.33;;;;;;;;;;5047150;28;20241;-52
2022/07/02 12:22:40;;;;;;;1.00;0.82;;;;;;;;;;5064563;28;20235;-51
2022/07/02 12:25:06;;;;;;;3.88;1.08;;;;;;;;;;5051526;28;20231;-52
2022/07/02 12:27:34;;;;;;;1.50;1.15;;;;;;;;;;5053729;28;20248;-50
2022/07/02 12:30:10;;;;;;;2.05;1.15;;;;;;;;;;5047225;28;20736;-51
2022/07/02 12:32:38;;;;;;;4.82;1.10;;;;;;;;;;5045577;28;20717;-52
2022/07/02 12:35:06;;;;;;;0.98;0.90;;;;;;;;;;5053919;28;20293;-52
2022/07/02 12:37:33;;;;;;;2.47;1.00;;;;;;;;;;5054350;28;20306;-51
2022/07/02 12:40:01;;;;;;;1.58;1.48;;;;;;;;;;5057176;28;20227;-53
2022/07/02 12:42:28;;;;;;;2.38;1.02;;;;;;;;;;5058684;28;20561;-51
2022/07/02 12:44:56;;;;;;;0.70;0.70;;;;;;;;;;5063031;28;20229;-52
2022/07/02 12:47:24;;;;;;;5.47;1.02;;;;;;;;;;5064452;28;20314;-58
2022/07/02 12:49:54;;;;;;;1.27;1.08;;;;;;;;;;5058590;28;20280;-52
2022/07/02 12:52:21;;;;;;;0.95;0.75;;;;;;;;;;5065470;28;20316;-52
2022/07/02 12:54:47;;;;;;;2.33;1.35;;;;;;;;;;5060136;28;20227;-50
2022/07/02 12:57:14;;;;;;;1.30;1.20;;;;;;;;;;5057538;28;20243;-51
2022/07/02 12:59:40;;;;;;;1.00;0.95;;;;;;;;;;5057799;28;20772;-52
2022/07/02 13:02:08;;;;;;;2.38;0.93;;;;;;;;;;5061212;28;20227;-52
2022/07/02 13:04:35;;;;;;;1.05;0.95;;;;;;;;;;5058933;28;20243;-53
2022/07/02 13:07:02;;;;;;;2.03;1.17;;;;;;;;;;5063957;28;20249;-51
2022/07/02 13:09:28;;;;;;;1.20;1.02;;;;;;;;;;5062829;28;20227;-56
2022/07/02 13:11:55;;;;;;;2.00;1.35;;;;;;;;;;5058006;28;21580;-51
2022/07/02 13:14:21;;;;;;;2.95;1.30;;;;;;;;;;5070497;28;20235;-51
2022/07/02 13:16:47;;;;;;;1.35;0.90;;;;;;;;;;5058735;28;20601;-51
2022/07/02 13:19:14;;;;;;;1.05;0.77;;;;;;;;;;5053589;28;20235;-51
2022/07/02 13:21:41;;;;;;;1.45;1.30;;;;;;;;;;5057287;28;20231;-53
2022/07/02 13:24:08;;;;;;;2.85;1.00;;;;;;;;;;5053132;28;20258;-51
2022/07/02 13:26:34;;;;;;;1.92;0.95;;;;;;;;;;5063075;28;20231;-52
2022/07/02 13:29:00;;;;;;;1.30;1.20;;;;;;;;;;5054158;28;20310;-51
2022/07/02 13:31:27;;;;;;;1.13;0.88;;;;;;;;;;5065067;28;20581;-55
2022/07/02 13:33:54;;;;;;;2.15;1.02;;;;;;;;;;5057174;28;20239;-51
2022/07/02 13:36:20;;;;;;;1.00;0.90;;;;;;;;;;5056049;28;20239;-52
2022/07/02 13:38:48;;;;;;;1.55;1.20;;;;;;;;;;5059936;28;20256;-51
2022/07/02 13:41:14;;;;;;;1.65;1.27;;;;;;;;;;5057398;28;20246;-51
2022/07/02 13:43:40;;;;;;;2.03;0.98;;;;;;;;;;5057600;28;20597;-52
2022/07/02 13:46:07;;;;;;;3.47;1.00;;;;;;;;;;5057943;28;20293;-52
2022/07/02 13:48:33;;;;;;;3.17;2.60;;;;;;;;;;5060058;28;20235;-51
2022/07/02 13:50:59;;;;;;;2.13;1.92;;;;;;;;;;5057920;28;20229;-53
2022/07/02 13:53:26;;;;;;;1.73;1.63;;;;;;;;;;5061290;28;20753;-51
2022/07/02 13:55:53;;;;;;;1.33;1.23;;;;;;;;;;5052898;28;20242;-51
2022/07/02 13:58:20;;;;;;;1.52;1.00;;;;;;;;;;5058061;28;20246;-54
2022/07/02 14:00:46;;;;;;;1.83;1.23;;;;;;;;;;5058423;28;20309;-52
2022/07/02 14:03:13;;;;;;;1.48;1.10;;;;;;;;;;5053743;28;20246;-52
2022/07/02 14:05:39;;;;;;;1.77;1.15;;;;;;;;;;5059079;28;20246;-52
2022/07/02 14:08:05;;;;;;;1.88;1.10;;;;;;;;;;5067366;28;20242;-54
2022/07/02 14:10:32;;;;;;;1.50;1.15;;;;;;;;;;5067638;28;20239;-51
2022/07/02 14:13:00;;;;;;;1.48;1.33;;;;;;;;;;5051853;28;20441;-52
2022/07/02 14:15:27;;;;;;;1.48;1.17;;;;;;;;;;5074118;28;20259;-51
2022/07/02 14:17:53;;;;;;;2.17;1.10;;;;;;;;;;5055800;28;20265;-55
2022/07/02 14:20:20;;;;;;;3.75;1.27;;;;;;;;;;5065139;28;20235;-51
2022/07/02 14:22:46;;;;;;;1.23;1.13;;;;;;;;;;5072036;28;20317;-54
2022/07/02 14:25:13;;;;;;;3.13;1.20;;;;;;;;;;5082826;28;20228;-57
2022/07/02 14:27:39;;;;;;;1.10;1.00;;;;;;;;;;5064195;28;20590;-51
2022/07/02 14:30:07;;;;;;;1.02;1.02;;;;;;;;;;5067257;28;20235;-52
2022/07/02 14:32:34;;;;;;;2.28;2.08;;;;;;;;;;5068956;28;20725;-52
2022/07/02 14:35:00;;;;;;;1.88;1.75;;;;;;;;;;5068456;28;20235;-51
2022/07/02 14:37:28;;;;;;;1.80;1.70;;;;;;;;;;5061260;28;20235;-52
2022/07/02 14:39:55;;;;;;;1.30;1.10;;;;;;;;;;5061766;28;20224;-52
2022/07/02 14:42:21;;;;;;;1.58;0.90;;;;;;;;;;5060864;28;20607;-51
2022/07/02 14:44:47;;;;;;;1.20;1.10;;;;;;;;;;5057648;28;20323;-55